Capricorn — PDAY — position and weather

sailwx.info

Track history (hours):
 
Tides and Currents Weather Stations Pressure Air Temp Water Temp Dewpoint Dewpoint Depression Visibility Wind Speed Wind Dir Waves Ship Positions

Capricorn

Last reported at 2018-Feb-23 03:53 UTC. Time now 2018-Feb-23 16:48 UTC.
Position N 53°44' W 006°16'.

Length 118 m; beam 15 m.

Type: Cargo ship. MMSI: 244050844.

Date/timePositionNaut miles runAvg speedWind from/ knotsBaromVisibWave heightAir tempDewpointWater temp
2018-Feb-23 03:53N 53°44' W 006°16'2 4.8
2018-Feb-23 03:29N 53°43' W 006°13'1 2.5
2018-Feb-23 02:58N 53°44' W 006°11'0 0.1
2018-Feb-23 02:28N 53°44' W 006°11'0 0.0
2018-Feb-23 01:58N 53°44' W 006°11'0 0.0
2018-Feb-23 01:28N 53°44' W 006°11'0 0.0
2018-Feb-23 00:55N 53°44' W 006°11'0 0.0
2018-Feb-23 00:25N 53°44' W 006°11'0 0.0
2018-Feb-22 23:58N 53°44' W 006°11'0 0.0
2018-Feb-22 23:22N 53°44' W 006°11'0 0.0
2018-Feb-22 22:58N 53°44' W 006°11'0 0.0
2018-Feb-22 22:30N 53°44' W 006°11'2 4.9
2018-Feb-22 22:00N 53°42' W 006°09'611.8
2018-Feb-22 21:29N 53°37' W 006°03'611.6
2018-Feb-22 20:59N 53°31' W 005°59'511.2
2018-Feb-22 20:30N 53°27' W 005°56'611.0
2018-Feb-22 20:00N 53°22' W 005°52'610.8
2018-Feb-22 19:27N 53°16' W 005°48'510.2
2018-Feb-22 18:58N 53°12' W 005°44'510.0
2018-Feb-22 18:30N 53°07' W 005°41'6 8.6
2018-Feb-22 17:45N 53°01' W 005°39'2 9.2
2018-Feb-22 17:30N 52°59' W 005°39'5 9.2
2018-Feb-22 17:00N 52°54' W 005°40'5 9.8
2018-Feb-22 16:30N 52°49' W 005°40'52911.3
2018-Feb-20 17:52N 43°60' W 005°42'610.8
2018-Feb-20 17:20N 43°54' W 005°41'410.9
2018-Feb-20 16:59N 43°50' W 005°41'511.0
2018-Feb-20 16:30N 43°45' W 005°41'511.0
2018-Feb-20 16:00N 43°40' W 005°40'610.9
2018-Feb-20 15:29N 43°34' W 005°40'1 1.7
2018-Feb-20 14:58N 43°33' W 005°41'0 0.0
2018-Feb-20 14:22N 43°33' W 005°41'0 0.0
2018-Feb-20 13:58N 43°33' W 005°41'0 0.0
2018-Feb-20 12:40N 43°33' W 005°41'0 0.0
2018-Feb-20 12:28N 43°33' W 005°41'0 0.0
2018-Feb-20 11:40N 43°33' W 005°41'0 0.0
2018-Feb-20 11:22N 43°33' W 005°41'0 0.0
2018-Feb-20 10:58N 43°33' W 005°41'0 0.0
2018-Feb-20 10:28N 43°33' W 005°41'0 0.0
2018-Feb-20 09:58N 43°33' W 005°41'0 0.0
2018-Feb-20 09:22N 43°33' W 005°41'0 0.0
2018-Feb-20 08:52N 43°33' W 005°41'0 0.0
2018-Feb-20 08:28N 43°33' W 005°41'0 0.0
2018-Feb-20 07:58N 43°33' W 005°41'0 0.0
2018-Feb-20 07:28N 43°33' W 005°41'0 0.0
2018-Feb-20 06:58N 43°33' W 005°41'0 0.0
2018-Feb-20 06:28N 43°33' W 005°41'0 0.0
2018-Feb-20 05:58N 43°33' W 005°41'0 0.0
2018-Feb-20 05:28N 43°33' W 005°41'0 0.0
2018-Feb-20 04:58N 43°33' W 005°41'0 0.0
2018-Feb-20 04:28N 43°33' W 005°41'0 0.0
2018-Feb-20 03:58N 43°33' W 005°41'0 0.0
2018-Feb-20 03:28N 43°33' W 005°41'0 0.0
2018-Feb-20 02:58N 43°33' W 005°41'0 0.0
2018-Feb-20 02:22N 43°33' W 005°41'0 0.0
2018-Feb-20 01:58N 43°33' W 005°41'0 0.0
2018-Feb-20 01:28N 43°33' W 005°41'0 0.0
2018-Feb-20 00:58N 43°33' W 005°41'0 0.0
2018-Feb-20 00:28N 43°33' W 005°41'0 0.0
2018-Feb-19 23:52N 43°33' W 005°41'0 0.0
2018-Feb-19 23:28N 43°33' W 005°41'0 0.0
2018-Feb-19 22:58N 43°33' W 005°41'0 0.0
2018-Feb-19 22:28N 43°33' W 005°41'0 0.0
2018-Feb-19 21:52N 43°33' W 005°41'0 0.0
2018-Feb-19 21:22N 43°33' W 005°41'0 0.0
2018-Feb-19 20:58N 43°33' W 005°41'0 0.0
2018-Feb-19 20:28N 43°33' W 005°41'0 0.0
2018-Feb-19 19:58N 43°33' W 005°41'0 0.0
2018-Feb-19 19:28N 43°33' W 005°41'0 0.2
2018-Feb-19 19:00N 43°34' W 005°41'3 5.3
2018-Feb-19 18:30N 43°36' W 005°40'612.4
2018-Feb-19 18:00N 43°42' W 005°42'612.8
2018-Feb-19 17:30N 43°49' W 005°43'1212.8
2018-Feb-19 16:34N 44°00' W 005°45'46612.5
2018-Feb-18 03:10N 51°44' W 006°58'212.4
2018-Feb-18 03:00N 51°46' W 006°58'612.4
2018-Feb-18 02:30N 51°52' W 006°58'612.2
2018-Feb-18 02:00N 51°58' W 006°58'611.3
2018-Feb-18 01:30N 52°04' W 006°59'511.0
2018-Feb-18 01:00N 52°09' W 006°58'5 9.9
2018-Feb-18 00:28N 52°15' W 006°59'2 4.7
2018-Feb-17 23:58N 52°16' W 007°02'0 0.0
2018-Feb-17 23:28N 52°16' W 007°02'0 0.0
2018-Feb-17 22:58N 52°16' W 007°02'0 0.0
2018-Feb-17 22:28N 52°16' W 007°02'0 0.0
2018-Feb-17 21:58N 52°16' W 007°02'0 0.0
2018-Feb-17 21:28N 52°16' W 007°02'0 0.0
2018-Feb-17 20:58N 52°16' W 007°02'0 0.0
2018-Feb-17 20:28N 52°16' W 007°02'0 0.0
2018-Feb-17 19:58N 52°16' W 007°02'0 0.0
2018-Feb-17 19:28N 52°16' W 007°02'0 0.0
2018-Feb-17 18:58N 52°16' W 007°02'0 0.0
2018-Feb-17 18:28N 52°16' W 007°02'0 0.0
2018-Feb-17 17:58N 52°16' W 007°02'0 0.0
2018-Feb-17 17:28N 52°16' W 007°02'0 0.0
2018-Feb-17 16:58N 52°16' W 007°02'0 0.0
2018-Feb-17 16:28N 52°16' W 007°02'0 0.0
2018-Feb-17 15:58N 52°16' W 007°02'0 0.0
2018-Feb-17 15:28N 52°16' W 007°02'0 0.0
2018-Feb-17 14:58N 52°16' W 007°02'0 0.0
2018-Feb-17 14:28N 52°16' W 007°02'0 0.0
2018-Feb-17 13:58N 52°16' W 007°02'0 0.0
2018-Feb-17 13:28N 52°16' W 007°02'0 0.0
2018-Feb-17 12:58N 52°16' W 007°02'0 0.0
2018-Feb-17 12:28N 52°16' W 007°02'0 0.0
2018-Feb-17 11:58N 52°16' W 007°02'0 0.0
2018-Feb-17 11:28N 52°16' W 007°02'0 0.0
2018-Feb-17 10:58N 52°16' W 007°02'0 0.0
2018-Feb-17 10:28N 52°16' W 007°02'0 0.0
2018-Feb-17 09:58N 52°16' W 007°02'0 0.0
2018-Feb-17 09:16N 52°16' W 007°02'0 0.0
2018-Feb-17 08:58N 52°16' W 007°02'0 0.0
2018-Feb-17 08:28N 52°16' W 007°02'0 0.0
2018-Feb-17 07:58N 52°16' W 007°02'0 0.0
2018-Feb-17 07:28N 52°16' W 007°02'0 0.0
2018-Feb-17 06:58N 52°16' W 007°02'0 0.0
2018-Feb-17 06:28N 52°16' W 007°02'0 0.0
2018-Feb-17 05:58N 52°16' W 007°02'0 0.0
2018-Feb-17 05:28N 52°16' W 007°02'0 0.0
2018-Feb-17 04:58N 52°16' W 007°02'0 0.0
2018-Feb-17 04:28N 52°16' W 007°02'0 0.0
2018-Feb-17 03:58N 52°16' W 007°02'0 0.0
2018-Feb-17 03:28N 52°16' W 007°02'0 0.0
2018-Feb-17 02:58N 52°16' W 007°02'0 0.0
2018-Feb-17 02:28N 52°16' W 007°02'0 0.0
2018-Feb-17 01:58N 52°16' W 007°02'0 0.0
2018-Feb-17 01:28N 52°16' W 007°02'0 0.0
2018-Feb-17 00:58N 52°16' W 007°02'0 0.0
2018-Feb-17 00:28N 52°16' W 007°02'0 0.0
2018-Feb-16 23:58N 52°16' W 007°02'0 0.0
2018-Feb-16 23:28N 52°16' W 007°02'0 0.0
2018-Feb-16 22:59N 52°16' W 007°02'1 1.4
2018-Feb-16 22:30N 52°16' W 007°02'3 5.4
2018-Feb-16 21:56N 52°14' W 006°58'3 7.4
2018-Feb-16 21:30N 52°11' W 006°56'3 6.5
2018-Feb-16 21:00N 52°08' W 006°59'5 9.7
2018-Feb-16 20:30N 52°03' W 006°59'611.3
2018-Feb-16 20:00N 51°58' W 006°59'611.4
2018-Feb-16 19:30N 51°52' W 006°59'611.4
2018-Feb-16 19:00N 51°46' W 006°59'50410.1
2018-Feb-14 16:50N 43°45' W 003°17'411.0
2018-Feb-14 16:30N 43°41' W 003°16'611.0
2018-Feb-14 16:00N 43°36' W 003°12'510.1
2018-Feb-14 15:30N 43°32' W 003°10'510.2
2018-Feb-14 15:00N 43°27' W 003°07'510.2
2018-Feb-14 14:30N 43°22' W 003°04'2 4.2
2018-Feb-14 13:59N 43°21' W 003°02'0 0.0
2018-Feb-14 13:26N 43°21' W 003°02'0 0.0
2018-Feb-14 12:59N 43°21' W 003°02'0 0.0
2018-Feb-14 12:26N 43°21' W 003°02'0 0.0
2018-Feb-14 11:53N 43°21' W 003°02'0 0.0
2018-Feb-14 11:29N 43°21' W 003°02'0 0.0
2018-Feb-14 10:59N 43°21' W 003°02'0 0.0
2018-Feb-14 10:29N 43°21' W 003°02'0 0.0
2018-Feb-14 09:59N 43°21' W 003°02'0 0.0
2018-Feb-14 09:29N 43°21' W 003°02'0 0.0
2018-Feb-14 08:59N 43°21' W 003°02'0 0.0
2018-Feb-14 08:29N 43°21' W 003°02'0 0.0
2018-Feb-14 07:59N 43°21' W 003°02'0 0.0
2018-Feb-14 07:29N 43°21' W 003°02'0 0.0
2018-Feb-14 06:59N 43°21' W 003°02'0 0.0
2018-Feb-14 06:29N 43°21' W 003°02'0 0.0
2018-Feb-14 05:59N 43°21' W 003°02'0 0.0
2018-Feb-14 05:29N 43°21' W 003°02'0 0.0
2018-Feb-14 04:59N 43°21' W 003°02'0 0.0
2018-Feb-14 04:29N 43°21' W 003°02'0 0.0
2018-Feb-14 03:59N 43°21' W 003°02'0 0.0
2018-Feb-14 03:29N 43°21' W 003°02'0 0.0
2018-Feb-14 02:59N 43°21' W 003°02'0 0.0
2018-Feb-14 02:29N 43°21' W 003°02'0 0.0
2018-Feb-14 01:59N 43°21' W 003°02'0 0.0
2018-Feb-14 01:29N 43°21' W 003°02'0 0.0
2018-Feb-14 00:53N 43°21' W 003°02'0 0.0
2018-Feb-14 00:29N 43°21' W 003°02'0 0.0
2018-Feb-13 23:59N 43°21' W 003°02'0 0.0
2018-Feb-13 23:29N 43°21' W 003°02'0 0.0
2018-Feb-13 22:59N 43°21' W 003°02'0 0.0
2018-Feb-13 22:29N 43°21' W 003°02'0 0.0
2018-Feb-13 21:56N 43°21' W 003°02'0 0.0
2018-Feb-13 21:26N 43°21' W 003°02'0 0.0
2018-Feb-13 20:53N 43°21' W 003°02'0 0.2
2018-Feb-13 20:22N 43°21' W 003°02'0 0.0
2018-Feb-13 19:58N 43°21' W 003°02'0 0.0
2018-Feb-13 19:28N 43°21' W 003°02'0 0.0
2018-Feb-13 18:58N 43°21' W 003°02'0 0.0
2018-Feb-13 18:28N 43°21' W 003°02'0 0.0
2018-Feb-13 17:58N 43°21' W 003°02'0 0.0
2018-Feb-13 17:28N 43°21' W 003°02'0 0.0
2018-Feb-13 16:58N 43°21' W 003°02'0 0.0
2018-Feb-13 16:28N 43°21' W 003°02'0 0.0
2018-Feb-13 15:58N 43°21' W 003°02'0 0.0
2018-Feb-13 15:28N 43°21' W 003°02'0 0.0
2018-Feb-13 14:58N 43°21' W 003°02'0 0.0
2018-Feb-13 14:28N 43°21' W 003°02'0 0.0
2018-Feb-13 13:58N 43°21' W 003°02'0 0.0
2018-Feb-13 13:28N 43°21' W 003°02'0 0.0
2018-Feb-13 12:52N 43°21' W 003°02'0 0.0
2018-Feb-13 12:22N 43°21' W 003°02'0 0.0
2018-Feb-13 11:58N 43°21' W 003°02'0 0.0
2018-Feb-13 11:28N 43°21' W 003°02'0 0.0
2018-Feb-13 10:58N 43°21' W 003°02'0 0.0
2018-Feb-13 10:28N 43°21' W 003°02'0 0.0
2018-Feb-13 09:58N 43°21' W 003°02'0 0.0
2018-Feb-13 09:28N 43°21' W 003°02'0 0.0
2018-Feb-13 08:52N 43°21' W 003°02'0 0.0
2018-Feb-13 08:28N 43°21' W 003°02'0 0.0
2018-Feb-13 07:58N 43°21' W 003°02'0 0.0
2018-Feb-13 07:28N 43°21' W 003°02'0 0.0
2018-Feb-13 06:58N 43°21' W 003°02'0 0.0
2018-Feb-13 06:28N 43°21' W 003°02'0 0.0
2018-Feb-13 05:58N 43°21' W 003°02'0 0.0
2018-Feb-13 05:28N 43°21' W 003°02'0 0.0
2018-Feb-13 04:58N 43°21' W 003°02'0 0.0
2018-Feb-13 04:22N 43°21' W 003°02'0 0.0
2018-Feb-13 03:58N 43°21' W 003°02'  
Track history (hours):
 
Tides and Currents Weather Stations Pressure Air Temp Water Temp Dewpoint Dewpoint Depression Visibility Wind Speed Wind Dir Waves Ship Positions

Capricorn

Last reported at 2018-Feb-23 03:53 UTC. Time now 2018-Feb-23 16:48 UTC.
Position N 53°44' W 006°16'.

Length 118 m; beam 15 m.

Type: Cargo ship. MMSI: 244050844.

Date/timePositionNaut miles runAvg speedWind from/ knotsBaromVisibWave heightAir tempDewpointWater temp
2018-Feb-23 03:53N 53°44' W 006°16'2 4.8
2018-Feb-23 03:29N 53°43' W 006°13'1 2.5
2018-Feb-23 02:58N 53°44' W 006°11'0 0.1
2018-Feb-23 02:28N 53°44' W 006°11'0 0.0
2018-Feb-23 01:58N 53°44' W 006°11'0 0.0
2018-Feb-23 01:28N 53°44' W 006°11'0 0.0
2018-Feb-23 00:55N 53°44' W 006°11'0 0.0
2018-Feb-23 00:25N 53°44' W 006°11'0 0.0
2018-Feb-22 23:58N 53°44' W 006°11'0 0.0
2018-Feb-22 23:22N 53°44' W 006°11'0 0.0
2018-Feb-22 22:58N 53°44' W 006°11'0 0.0
2018-Feb-22 22:30N 53°44' W 006°11'2 4.9
2018-Feb-22 22:00N 53°42' W 006°09'611.8
2018-Feb-22 21:29N 53°37' W 006°03'611.6
2018-Feb-22 20:59N 53°31' W 005°59'511.2
2018-Feb-22 20:30N 53°27' W 005°56'611.0
2018-Feb-22 20:00N 53°22' W 005°52'610.8
2018-Feb-22 19:27N 53°16' W 005°48'510.2
2018-Feb-22 18:58N 53°12' W 005°44'510.0
2018-Feb-22 18:30N 53°07' W 005°41'6 8.6
2018-Feb-22 17:45N 53°01' W 005°39'2 9.2
2018-Feb-22 17:30N 52°59' W 005°39'5 9.2
2018-Feb-22 17:00N 52°54' W 005°40'5 9.8
2018-Feb-22 16:30N 52°49' W 005°40'52911.3
2018-Feb-20 17:52N 43°60' W 005°42'610.8
2018-Feb-20 17:20N 43°54' W 005°41'410.9
2018-Feb-20 16:59N 43°50' W 005°41'511.0
2018-Feb-20 16:30N 43°45' W 005°41'511.0
2018-Feb-20 16:00N 43°40' W 005°40'610.9
2018-Feb-20 15:29N 43°34' W 005°40'1 1.7
2018-Feb-20 14:58N 43°33' W 005°41'0 0.0
2018-Feb-20 14:22N 43°33' W 005°41'0 0.0
2018-Feb-20 13:58N 43°33' W 005°41'0 0.0
2018-Feb-20 12:40N 43°33' W 005°41'0 0.0
2018-Feb-20 12:28N 43°33' W 005°41'0 0.0
2018-Feb-20 11:40N 43°33' W 005°41'0 0.0
2018-Feb-20 11:22N 43°33' W 005°41'0 0.0
2018-Feb-20 10:58N 43°33' W 005°41'0 0.0
2018-Feb-20 10:28N 43°33' W 005°41'0 0.0
2018-Feb-20 09:58N 43°33' W 005°41'0 0.0
2018-Feb-20 09:22N 43°33' W 005°41'0 0.0
2018-Feb-20 08:52N 43°33' W 005°41'0 0.0
2018-Feb-20 08:28N 43°33' W 005°41'0 0.0
2018-Feb-20 07:58N 43°33' W 005°41'0 0.0
2018-Feb-20 07:28N 43°33' W 005°41'0 0.0
2018-Feb-20 06:58N 43°33' W 005°41'0 0.0
2018-Feb-20 06:28N 43°33' W 005°41'0 0.0
2018-Feb-20 05:58N 43°33' W 005°41'0 0.0
2018-Feb-20 05:28N 43°33' W 005°41'0 0.0
2018-Feb-20 04:58N 43°33' W 005°41'0 0.0
2018-Feb-20 04:28N 43°33' W 005°41'0 0.0
2018-Feb-20 03:58N 43°33' W 005°41'0 0.0
2018-Feb-20 03:28N 43°33' W 005°41'0 0.0
2018-Feb-20 02:58N 43°33' W 005°41'0 0.0
2018-Feb-20 02:22N 43°33' W 005°41'0 0.0
2018-Feb-20 01:58N 43°33' W 005°41'0 0.0
2018-Feb-20 01:28N 43°33' W 005°41'0 0.0
2018-Feb-20 00:58N 43°33' W 005°41'0 0.0
2018-Feb-20 00:28N 43°33' W 005°41'0 0.0
2018-Feb-19 23:52N 43°33' W 005°41'0 0.0
2018-Feb-19 23:28N 43°33' W 005°41'0 0.0
2018-Feb-19 22:58N 43°33' W 005°41'0 0.0
2018-Feb-19 22:28N 43°33' W 005°41'0 0.0
2018-Feb-19 21:52N 43°33' W 005°41'0 0.0
2018-Feb-19 21:22N 43°33' W 005°41'0 0.0
2018-Feb-19 20:58N 43°33' W 005°41'0 0.0
2018-Feb-19 20:28N 43°33' W 005°41'0 0.0
2018-Feb-19 19:58N 43°33' W 005°41'0 0.0
2018-Feb-19 19:28N 43°33' W 005°41'0 0.2
2018-Feb-19 19:00N 43°34' W 005°41'3 5.3
2018-Feb-19 18:30N 43°36' W 005°40'612.4
2018-Feb-19 18:00N 43°42' W 005°42'612.8
2018-Feb-19 17:30N 43°49' W 005°43'1212.8
2018-Feb-19 16:34N 44°00' W 005°45'46612.5
2018-Feb-18 03:10N 51°44' W 006°58'212.4
2018-Feb-18 03:00N 51°46' W 006°58'612.4
2018-Feb-18 02:30N 51°52' W 006°58'612.2
2018-Feb-18 02:00N 51°58' W 006°58'611.3
2018-Feb-18 01:30N 52°04' W 006°59'511.0
2018-Feb-18 01:00N 52°09' W 006°58'5 9.9
2018-Feb-18 00:28N 52°15' W 006°59'2 4.7
2018-Feb-17 23:58N 52°16' W 007°02'0 0.0
2018-Feb-17 23:28N 52°16' W 007°02'0 0.0
2018-Feb-17 22:58N 52°16' W 007°02'0 0.0
2018-Feb-17 22:28N 52°16' W 007°02'0 0.0
2018-Feb-17 21:58N 52°16' W 007°02'0 0.0
2018-Feb-17 21:28N 52°16' W 007°02'0 0.0
2018-Feb-17 20:58N 52°16' W 007°02'0 0.0
2018-Feb-17 20:28N 52°16' W 007°02'0 0.0
2018-Feb-17 19:58N 52°16' W 007°02'0 0.0
2018-Feb-17 19:28N 52°16' W 007°02'0 0.0
2018-Feb-17 18:58N 52°16' W 007°02'0 0.0
2018-Feb-17 18:28N 52°16' W 007°02'0 0.0
2018-Feb-17 17:58N 52°16' W 007°02'0 0.0
2018-Feb-17 17:28N 52°16' W 007°02'0 0.0
2018-Feb-17 16:58N 52°16' W 007°02'0 0.0
2018-Feb-17 16:28N 52°16' W 007°02'0 0.0
2018-Feb-17 15:58N 52°16' W 007°02'0 0.0
2018-Feb-17 15:28N 52°16' W 007°02'0 0.0
2018-Feb-17 14:58N 52°16' W 007°02'0 0.0
2018-Feb-17 14:28N 52°16' W 007°02'0 0.0
2018-Feb-17 13:58N 52°16' W 007°02'0 0.0
2018-Feb-17 13:28N 52°16' W 007°02'0 0.0
2018-Feb-17 12:58N 52°16' W 007°02'0 0.0
2018-Feb-17 12:28N 52°16' W 007°02'0 0.0
2018-Feb-17 11:58N 52°16' W 007°02'0 0.0
2018-Feb-17 11:28N 52°16' W 007°02'0 0.0
2018-Feb-17 10:58N 52°16' W 007°02'0 0.0
2018-Feb-17 10:28N 52°16' W 007°02'0 0.0
2018-Feb-17 09:58N 52°16' W 007°02'0 0.0
2018-Feb-17 09:16N 52°16' W 007°02'0 0.0
2018-Feb-17 08:58N 52°16' W 007°02'0 0.0
2018-Feb-17 08:28N 52°16' W 007°02'0 0.0
2018-Feb-17 07:58N 52°16' W 007°02'0 0.0
2018-Feb-17 07:28N 52°16' W 007°02'0 0.0
2018-Feb-17 06:58N 52°16' W 007°02'0 0.0
2018-Feb-17 06:28N 52°16' W 007°02'0 0.0
2018-Feb-17 05:58N 52°16' W 007°02'0 0.0
2018-Feb-17 05:28N 52°16' W 007°02'0 0.0
2018-Feb-17 04:58N 52°16' W 007°02'0 0.0
2018-Feb-17 04:28N 52°16' W 007°02'0 0.0
2018-Feb-17 03:58N 52°16' W 007°02'0 0.0
2018-Feb-17 03:28N 52°16' W 007°02'0 0.0
2018-Feb-17 02:58N 52°16' W 007°02'0 0.0
2018-Feb-17 02:28N 52°16' W 007°02'0 0.0
2018-Feb-17 01:58N 52°16' W 007°02'0 0.0
2018-Feb-17 01:28N 52°16' W 007°02'0 0.0
2018-Feb-17 00:58N 52°16' W 007°02'0 0.0
2018-Feb-17 00:28N 52°16' W 007°02'0 0.0
2018-Feb-16 23:58N 52°16' W 007°02'0 0.0
2018-Feb-16 23:28N 52°16' W 007°02'0 0.0
2018-Feb-16 22:59N 52°16' W 007°02'1 1.4
2018-Feb-16 22:30N 52°16' W 007°02'3 5.4
2018-Feb-16 21:56N 52°14' W 006°58'3 7.4
2018-Feb-16 21:30N 52°11' W 006°56'3 6.5
2018-Feb-16 21:00N 52°08' W 006°59'5 9.7
2018-Feb-16 20:30N 52°03' W 006°59'611.3
2018-Feb-16 20:00N 51°58' W 006°59'611.4
2018-Feb-16 19:30N 51°52' W 006°59'611.4
2018-Feb-16 19:00N 51°46' W 006°59'50410.1
2018-Feb-14 16:50N 43°45' W 003°17'411.0
2018-Feb-14 16:30N 43°41' W 003°16'611.0
2018-Feb-14 16:00N 43°36' W 003°12'510.1
2018-Feb-14 15:30N 43°32' W 003°10'510.2
2018-Feb-14 15:00N 43°27' W 003°07'510.2
2018-Feb-14 14:30N 43°22' W 003°04'2 4.2
2018-Feb-14 13:59N 43°21' W 003°02'0 0.0
2018-Feb-14 13:26N 43°21' W 003°02'0 0.0
2018-Feb-14 12:59N 43°21' W 003°02'0 0.0
2018-Feb-14 12:26N 43°21' W 003°02'0 0.0
2018-Feb-14 11:53N 43°21' W 003°02'0 0.0
2018-Feb-14 11:29N 43°21' W 003°02'0 0.0
2018-Feb-14 10:59N 43°21' W 003°02'0 0.0
2018-Feb-14 10:29N 43°21' W 003°02'0 0.0
2018-Feb-14 09:59N 43°21' W 003°02'0 0.0
2018-Feb-14 09:29N 43°21' W 003°02'0 0.0
2018-Feb-14 08:59N 43°21' W 003°02'0 0.0
2018-Feb-14 08:29N 43°21' W 003°02'0 0.0
2018-Feb-14 07:59N 43°21' W 003°02'0 0.0
2018-Feb-14 07:29N 43°21' W 003°02'0 0.0
2018-Feb-14 06:59N 43°21' W 003°02'0 0.0
2018-Feb-14 06:29N 43°21' W 003°02'0 0.0
2018-Feb-14 05:59N 43°21' W 003°02'0 0.0
2018-Feb-14 05:29N 43°21' W 003°02'0 0.0
2018-Feb-14 04:59N 43°21' W 003°02'0 0.0
2018-Feb-14 04:29N 43°21' W 003°02'0 0.0
2018-Feb-14 03:59N 43°21' W 003°02'0 0.0
2018-Feb-14 03:29N 43°21' W 003°02'0 0.0
2018-Feb-14 02:59N 43°21' W 003°02'0 0.0
2018-Feb-14 02:29N 43°21' W 003°02'0 0.0
2018-Feb-14 01:59N 43°21' W 003°02'0 0.0
2018-Feb-14 01:29N 43°21' W 003°02'0 0.0
2018-Feb-14 00:53N 43°21' W 003°02'0 0.0
2018-Feb-14 00:29N 43°21' W 003°02'0 0.0
2018-Feb-13 23:59N 43°21' W 003°02'0 0.0
2018-Feb-13 23:29N 43°21' W 003°02'0 0.0
2018-Feb-13 22:59N 43°21' W 003°02'0 0.0
2018-Feb-13 22:29N 43°21' W 003°02'0 0.0
2018-Feb-13 21:56N 43°21' W 003°02'0 0.0
2018-Feb-13 21:26N 43°21' W 003°02'0 0.0
2018-Feb-13 20:53N 43°21' W 003°02'0 0.2
2018-Feb-13 20:22N 43°21' W 003°02'0 0.0
2018-Feb-13 19:58N 43°21' W 003°02'0 0.0
2018-Feb-13 19:28N 43°21' W 003°02'0 0.0
2018-Feb-13 18:58N 43°21' W 003°02'0 0.0
2018-Feb-13 18:28N 43°21' W 003°02'0 0.0
2018-Feb-13 17:58N 43°21' W 003°02'0 0.0
2018-Feb-13 17:28N 43°21' W 003°02'0 0.0
2018-Feb-13 16:58N 43°21' W 003°02'0 0.0
2018-Feb-13 16:28N 43°21' W 003°02'0 0.0
2018-Feb-13 15:58N 43°21' W 003°02'0 0.0
2018-Feb-13 15:28N 43°21' W 003°02'0 0.0
2018-Feb-13 14:58N 43°21' W 003°02'0 0.0
2018-Feb-13 14:28N 43°21' W 003°02'0 0.0
2018-Feb-13 13:58N 43°21' W 003°02'0 0.0
2018-Feb-13 13:28N 43°21' W 003°02'0 0.0
2018-Feb-13 12:52N 43°21' W 003°02'0 0.0
2018-Feb-13 12:22N 43°21' W 003°02'0 0.0
2018-Feb-13 11:58N 43°21' W 003°02'0 0.0
2018-Feb-13 11:28N 43°21' W 003°02'0 0.0
2018-Feb-13 10:58N 43°21' W 003°02'0 0.0
2018-Feb-13 10:28N 43°21' W 003°02'0 0.0
2018-Feb-13 09:58N 43°21' W 003°02'0 0.0
2018-Feb-13 09:28N 43°21' W 003°02'0 0.0
2018-Feb-13 08:52N 43°21' W 003°02'0 0.0
2018-Feb-13 08:28N 43°21' W 003°02'0 0.0
2018-Feb-13 07:58N 43°21' W 003°02'0 0.0
2018-Feb-13 07:28N 43°21' W 003°02'0 0.0
2018-Feb-13 06:58N 43°21' W 003°02'0 0.0
2018-Feb-13 06:28N 43°21' W 003°02'0 0.0
2018-Feb-13 05:58N 43°21' W 003°02'0 0.0
2018-Feb-13 05:28N 43°21' W 003°02'0 0.0
2018-Feb-13 04:58N 43°21' W 003°02'0 0.0
2018-Feb-13 04:22N 43°21' W 003°02'0 0.0
2018-Feb-13 03:58N 43°21' W 003°02'  

Dump ship's entire track history